sensor_id;sensor_type;location;lat;lon;timestamp;pressure;altitude;pressure_sealevel;temperature;humidity
49044;BME280;34860;48.066;14.124;2024-03-08T00:02:03;96734.75;;;0.72;72.59
49044;BME280;34860;48.066;14.124;2024-03-08T00:04:53;96735.16;;;0.74;72.67
49044;BME280;34860;48.066;14.124;2024-03-08T00:07:42;96736.75;;;0.75;72.86
49044;BME280;34860;48.066;14.124;2024-03-08T00:10:31;96735.97;;;0.78;72.69
49044;BME280;34860;48.066;14.124;2024-03-08T00:13:25;96726.56;;;0.76;72.81
49044;BME280;34860;48.066;14.124;2024-03-08T00:16:14;96729.72;;;0.78;72.75
49044;BME280;34860;48.066;14.124;2024-03-08T00:19:02;96725.03;;;0.78;72.96
49044;BME280;34860;48.066;14.124;2024-03-08T00:21:52;96722.72;;;0.80;72.89
49044;BME280;34860;48.066;14.124;2024-03-08T00:24:42;96725.03;;;0.78;73.03
49044;BME280;34860;48.066;14.124;2024-03-08T00:27:31;96723.47;;;0.77;72.92
49044;BME280;34860;48.066;14.124;2024-03-08T00:30:19;96720.69;;;0.74;73.12
49044;BME280;34860;48.066;14.124;2024-03-08T00:33:10;96720.63;;;0.70;73.22
49044;BME280;34860;48.066;14.124;2024-03-08T00:35:58;96721.00;;;0.68;73.30
49044;BME280;34860;48.066;14.124;2024-03-08T00:38:48;96710.38;;;0.63;73.37
49044;BME280;34860;48.066;14.124;2024-03-08T00:41:37;96706.88;;;0.63;73.44
49044;BME280;34860;48.066;14.124;2024-03-08T00:44:25;96703.34;;;0.62;73.43
49044;BME280;34860;48.066;14.124;2024-03-08T00:47:14;96707.66;;;0.63;73.42
49044;BME280;34860;48.066;14.124;2024-03-08T00:50:03;96707.66;;;0.63;73.48
49044;BME280;34860;48.066;14.124;2024-03-08T00:52:52;96695.94;;;0.63;73.66
49044;BME280;34860;48.066;14.124;2024-03-08T00:55:42;96693.19;;;0.63;73.62
49044;BME280;34860;48.066;14.124;2024-03-08T00:58:33;96685.38;;;0.61;73.71
49044;BME280;34860;48.066;14.124;2024-03-08T01:01:22;96688.09;;;0.61;73.73
49044;BME280;34860;48.066;14.124;2024-03-08T01:04:11;96676.75;;;0.59;73.81
49044;BME280;34860;48.066;14.124;2024-03-08T01:07:00;96686.50;;;0.60;73.85
49044;BME280;34860;48.066;14.124;2024-03-08T01:09:49;96677.53;;;0.60;73.98
49044;BME280;34860;48.066;14.124;2024-03-08T01:12:40;96681.03;;;0.60;73.95
49044;BME280;34860;48.066;14.124;2024-03-08T01:15:29;96684.97;;;0.59;73.87
49044;BME280;34860;48.066;14.124;2024-03-08T01:18:18;96679.91;;;0.61;73.99
49044;BME280;34860;48.066;14.124;2024-03-08T01:21:07;96674.00;;;0.59;74.08
49044;BME280;34860;48.066;14.124;2024-03-08T01:23:55;96672.84;;;0.60;74.04
49044;BME280;34860;48.066;14.124;2024-03-08T01:26:44;96668.53;;;0.59;74.24
49044;BME280;34860;48.066;14.124;2024-03-08T01:29:34;96660.72;;;0.58;74.24
49044;BME280;34860;48.066;14.124;2024-03-08T01:32:22;96654.44;;;0.57;74.20
49044;BME280;34860;48.066;14.124;2024-03-08T01:35:11;96651.28;;;0.55;74.33
49044;BME280;34860;48.066;14.124;2024-03-08T01:38:00;96648.19;;;0.57;74.40
49044;BME280;34860;48.066;14.124;2024-03-08T01:40:48;96645.81;;;0.55;74.51
49044;BME280;34860;48.066;14.124;2024-03-08T01:43:37;96646.22;;;0.57;74.52
49044;BME280;34860;48.066;14.124;2024-03-08T01:46:27;96642.69;;;0.53;74.56
49044;BME280;34860;48.066;14.124;2024-03-08T01:49:16;96629.75;;;0.50;74.54
49044;BME280;34860;48.066;14.124;2024-03-08T01:52:07;96629.75;;;0.50;74.42
49044;BME280;34860;48.066;14.124;2024-03-08T01:54:56;96631.69;;;0.49;74.61
49044;BME280;34860;48.066;14.124;2024-03-08T01:57:48;96632.84;;;0.48;74.65
49044;BME280;34860;48.066;14.124;2024-03-08T02:00:38;96631.28;;;0.47;74.66
49044;BME280;34860;48.066;14.124;2024-03-08T02:03:30;96627.75;;;0.47;74.67
49044;BME280;34860;48.066;14.124;2024-03-08T02:06:19;96619.94;;;0.45;74.76
49044;BME280;34860;48.066;14.124;2024-03-08T02:09:07;96615.59;;;0.44;74.87
49044;BME280;34860;48.066;14.124;2024-03-08T02:11:56;96607.78;;;0.43;74.94
49044;BME280;34860;48.066;14.124;2024-03-08T02:14:50;96615.97;;;0.43;74.94
49044;BME280;34860;48.066;14.124;2024-03-08T02:17:39;96607.78;;;0.43;75.04
49044;BME280;34860;48.066;14.124;2024-03-08T02:20:30;96604.25;;;0.42;75.02
49044;BME280;34860;48.066;14.124;2024-03-08T02:23:19;96605.41;;;0.41;75.00
49044;BME280;34860;48.066;14.124;2024-03-08T02:26:08;96606.22;;;0.42;75.05
49044;BME280;34860;48.066;14.124;2024-03-08T02:28:56;96602.28;;;0.39;75.05
49044;BME280;34860;48.066;14.124;2024-03-08T02:31:44;96609.31;;;0.40;75.13
49044;BME280;34860;48.066;14.124;2024-03-08T02:34:33;96604.63;;;0.41;75.18
49044;BME280;34860;48.066;14.124;2024-03-08T02:37:23;96600.31;;;0.40;75.18
49044;BME280;34860;48.066;14.124;2024-03-08T02:40:12;96605.00;;;0.39;75.01
49044;BME280;34860;48.066;14.124;2024-03-08T02:43:00;96603.41;;;0.38;75.26
49044;BME280;34860;48.066;14.124;2024-03-08T02:45:49;96603.41;;;0.38;75.22
49044;BME280;34860;48.066;14.124;2024-03-08T02:48:40;96596.41;;;0.37;75.35
49044;BME280;34860;48.066;14.124;2024-03-08T02:51:28;96590.88;;;0.33;75.23
49044;BME280;34860;48.066;14.124;2024-03-08T02:54:19;96593.19;;;0.31;75.25
49044;BME280;34860;48.066;14.124;2024-03-08T02:57:08;96590.06;;;0.29;75.26
49044;BME280;34860;48.066;14.124;2024-03-08T02:59:56;96588.91;;;0.30;75.22
49044;BME280;34860;48.066;14.124;2024-03-08T03:02:46;96589.63;;;0.27;75.28
49044;BME280;34860;48.066;14.124;2024-03-08T03:05:35;96586.47;;;0.25;75.33
49044;BME280;34860;48.066;14.124;2024-03-08T03:08:24;96576.34;;;0.26;75.42
49044;BME280;34860;48.066;14.124;2024-03-08T03:11:13;96582.97;;;0.25;75.41
49044;BME280;34860;48.066;14.124;2024-03-08T03:14:02;96572.41;;;0.23;75.31
49044;BME280;34860;48.066;14.124;2024-03-08T03:16:51;96579.00;;;0.22;75.25
49044;BME280;34860;48.066;14.124;2024-03-08T03:19:40;96582.13;;;0.21;75.45
49044;BME280;34860;48.066;14.124;2024-03-08T03:22:29;96584.06;;;0.20;75.58
49044;BME280;34860;48.066;14.124;2024-03-08T03:25:18;96588.31;;;0.17;75.47
49044;BME280;34860;48.066;14.124;2024-03-08T03:28:13;96584.81;;;0.17;75.45
49044;BME280;34860;48.066;14.124;2024-03-08T03:31:05;96576.97;;;0.15;75.45
49044;BME280;34860;48.066;14.124;2024-03-08T03:33:56;96582.03;;;0.13;75.55
49044;BME280;34860;48.066;14.124;2024-03-08T03:36:48;96576.94;;;0.12;75.50
49044;BME280;34860;48.066;14.124;2024-03-08T03:39:37;96578.47;;;0.09;75.62
49044;BME280;34860;48.066;14.124;2024-03-08T03:42:35;96576.91;;;0.08;75.56
49044;BME280;34860;48.066;14.124;2024-03-08T03:45:26;96579.19;;;0.06;75.62
49044;BME280;34860;48.066;14.124;2024-03-08T03:48:15;96569.81;;;0.04;75.70
49044;BME280;34860;48.066;14.124;2024-03-08T03:51:04;96565.88;;;0.01;75.79
49044;BME280;34860;48.066;14.124;2024-03-08T03:53:52;96568.19;;;-0.01;75.83
49044;BME280;34860;48.066;14.124;2024-03-08T03:56:41;96564.69;;;-0.02;75.84
49044;BME280;34860;48.066;14.124;2024-03-08T03:59:29;96561.94;;;-0.02;75.81
49044;BME280;34860;48.066;14.124;2024-03-08T04:02:20;96558.41;;;-0.02;75.86
49044;BME280;34860;48.066;14.124;2024-03-08T04:05:09;96559.63;;;0.01;75.91
49044;BME280;34860;48.066;14.124;2024-03-08T04:07:58;96556.09;;;0.00;75.88
49044;BME280;34860;48.066;14.124;2024-03-08T04:10:46;96556.53;;;0.02;75.87
49044;BME280;34860;48.066;14.124;2024-03-08T04:13:35;96550.66;;;0.00;75.99
49044;BME280;34860;48.066;14.124;2024-03-08T04:16:25;96549.44;;;-0.03;75.93
49044;BME280;34860;48.066;14.124;2024-03-08T04:19:15;96547.47;;;-0.02;76.01
49044;BME280;34860;48.066;14.124;2024-03-08T04:22:03;96543.22;;;0.01;76.07
49044;BME280;34860;48.066;14.124;2024-03-08T04:24:52;96542.38;;;-0.04;76.12
49044;BME280;34860;48.066;14.124;2024-03-08T04:27:41;96535.78;;;-0.03;76.24
49044;BME280;34860;48.066;14.124;2024-03-08T04:30:29;96529.91;;;-0.05;76.16
49044;BME280;34860;48.066;14.124;2024-03-08T04:33:18;96529.09;;;-0.05;76.29
49044;BME280;34860;48.066;14.124;2024-03-08T04:36:08;96534.19;;;-0.04;76.22
49044;BME280;34860;48.066;14.124;2024-03-08T04:39:00;96537.72;;;-0.03;76.25
49044;BME280;34860;48.066;14.124;2024-03-08T04:41:49;96535.03;;;0.01;76.24
49044;BME280;34860;48.066;14.124;2024-03-08T04:44:38;96535.06;;;0.04;76.17
49044;BME280;34860;48.066;14.124;2024-03-08T04:47:27;96540.16;;;0.06;76.11
49044;BME280;34860;48.066;14.124;2024-03-08T04:50:15;96539.78;;;0.07;76.09
49044;BME280;34860;48.066;14.124;2024-03-08T04:53:06;96541.38;;;0.08;76.13
49044;BME280;34860;48.066;14.124;2024-03-08T04:55:56;96533.59;;;0.10;76.17
49044;BME280;34860;48.066;14.124;2024-03-08T04:58:45;96528.16;;;0.14;76.24
49044;BME280;34860;48.066;14.124;2024-03-08T05:01:34;96520.38;;;0.16;76.02
49044;BME280;34860;48.066;14.124;2024-03-08T05:04:25;96531.38;;;0.20;75.97
49044;BME280;34860;48.066;14.124;2024-03-08T05:07:13;96527.81;;;0.19;76.19
49044;BME280;34860;48.066;14.124;2024-03-08T05:10:03;96523.94;;;0.20;76.19
49044;BME280;34860;48.066;14.124;2024-03-08T05:12:53;96514.59;;;0.21;76.28
49044;BME280;34860;48.066;14.124;2024-03-08T05:15:43;96522.06;;;0.24;76.22
49044;BME280;34860;48.066;14.124;2024-03-08T05:18:32;96525.97;;;0.27;76.24
49044;BME280;34860;48.066;14.124;2024-03-08T05:21:20;96522.09;;;0.28;76.17
49044;BME280;34860;48.066;14.124;2024-03-08T05:24:09;96510.38;;;0.27;76.15
49044;BME280;34860;48.066;14.124;2024-03-08T05:26:59;96522.09;;;0.28;76.23
49044;BME280;34860;48.066;14.124;2024-03-08T05:29:47;96516.66;;;0.31;76.28
49044;BME280;34860;48.066;14.124;2024-03-08T05:32:36;96500.63;;;0.30;76.34
49044;BME280;34860;48.066;14.124;2024-03-08T05:35:25;96508.47;;;0.31;76.54
49044;BME280;34860;48.066;14.124;2024-03-08T05:38:13;96510.81;;;0.33;76.29
49044;BME280;34860;48.066;14.124;2024-03-08T05:41:04;96516.28;;;0.33;76.34
49044;BME280;34860;48.066;14.124;2024-03-08T05:43:55;96513.97;;;0.35;76.36
49044;BME280;34860;48.066;14.124;2024-03-08T05:46:44;96512.41;;;0.34;76.50
49044;BME280;34860;48.066;14.124;2024-03-08T05:49:33;96506.19;;;0.37;76.39
49044;BME280;34860;48.066;14.124;2024-03-08T05:52:22;96505.44;;;0.40;76.37
49044;BME280;34860;48.066;14.124;2024-03-08T05:55:10;96514.44;;;0.44;76.40
49044;BME280;34860;48.066;14.124;2024-03-08T05:58:02;96501.16;;;0.43;76.29
49044;BME280;34860;48.066;14.124;2024-03-08T06:00:51;96503.47;;;0.41;76.36
49044;BME280;34860;48.066;14.124;2024-03-08T06:03:40;96498.41;;;0.43;76.27
49044;BME280;34860;48.066;14.124;2024-03-08T06:06:32;96505.06;;;0.42;76.32
49044;BME280;34860;48.066;14.124;2024-03-08T06:09:20;96501.53;;;0.41;76.42
49044;BME280;34860;48.066;14.124;2024-03-08T06:12:10;96502.34;;;0.42;76.33
49044;BME280;34860;48.066;14.124;2024-03-08T06:14:59;96498.78;;;0.41;76.40
49044;BME280;34860;48.066;14.124;2024-03-08T06:17:49;96500.34;;;0.39;76.42
49044;BME280;34860;48.066;14.124;2024-03-08T06:20:40;96501.53;;;0.41;76.50
49044;BME280;34860;48.066;14.124;2024-03-08T06:23:31;96503.47;;;0.41;76.53
49044;BME280;34860;48.066;14.124;2024-03-08T06:26:19;96503.16;;;0.46;76.51
49044;BME280;34860;48.066;14.124;2024-03-08T06:29:09;96503.19;;;0.49;76.33
49044;BME280;34860;48.066;14.124;2024-03-08T06:31:57;96509.88;;;0.56;76.32
49044;BME280;34860;48.066;14.124;2024-03-08T06:34:48;96507.94;;;0.56;76.13
49044;BME280;34860;48.066;14.124;2024-03-08T06:37:37;96511.50;;;0.60;76.24
49044;BME280;34860;48.066;14.124;2024-03-08T06:40:25;96507.66;;;0.68;76.12
49044;BME280;34860;48.066;14.124;2024-03-08T06:43:14;96517.91;;;0.75;76.07
49044;BME280;34860;48.066;14.124;2024-03-08T06:46:05;96511.22;;;0.72;76.05
49044;BME280;34860;48.066;14.124;2024-03-08T06:48:53;96515.97;;;0.79;76.10
49044;BME280;34860;48.066;14.124;2024-03-08T06:51:43;96511.66;;;0.78;76.07
49044;BME280;34860;48.066;14.124;2024-03-08T06:54:31;96508.56;;;0.80;76.05
49044;BME280;34860;48.066;14.124;2024-03-08T06:57:20;96513.28;;;0.83;76.13
49044;BME280;34860;48.066;14.124;2024-03-08T07:00:11;96515.72;;;0.92;76.17
49044;BME280;34860;48.066;14.124;2024-03-08T07:03:07;96513.84;;;0.99;76.03
49044;BME280;34860;48.066;14.124;2024-03-08T07:05:59;96518.59;;;1.09;75.75
49044;BME280;34860;48.066;14.124;2024-03-08T07:08:51;96515.94;;;1.17;75.70
49044;BME280;34860;48.066;14.124;2024-03-08T07:11:39;96514.00;;;1.21;75.58
49044;BME280;34860;48.066;14.124;2024-03-08T07:14:30;96515.97;;;1.24;75.51
49044;BME280;34860;48.066;14.124;2024-03-08T07:17:19;96517.97;;;1.27;75.58
49044;BME280;34860;48.066;14.124;2024-03-08T07:20:09;96514.47;;;1.34;75.35
49044;BME280;34860;48.066;14.124;2024-03-08T07:22:59;96516.88;;;1.39;75.33
49044;BME280;34860;48.066;14.124;2024-03-08T07:25:49;96504.75;;;1.40;75.30
49044;BME280;34860;48.066;14.124;2024-03-08T07:28:38;96505.94;;;1.42;75.31
49044;BME280;34860;48.066;14.124;2024-03-08T07:31:26;96502.03;;;1.43;75.18
49044;BME280;34860;48.066;14.124;2024-03-08T07:34:25;96495.38;;;1.41;75.14
49044;BME280;34860;48.066;14.124;2024-03-08T07:37:13;96490.66;;;1.38;74.94
49044;BME280;34860;48.066;14.124;2024-03-08T07:40:02;96501.22;;;1.36;75.12
49044;BME280;34860;48.066;14.124;2024-03-08T07:42:52;96495.38;;;1.37;75.11
49044;BME280;34860;48.066;14.124;2024-03-08T07:45:41;96497.34;;;1.44;75.10
49044;BME280;34860;48.066;14.124;2024-03-08T07:48:30;96493.88;;;1.54;74.93
49044;BME280;34860;48.066;14.124;2024-03-08T07:51:18;96493.56;;;1.63;74.89
49044;BME280;34860;48.066;14.124;2024-03-08T07:54:07;96497.91;;;1.68;74.76
49044;BME280;34860;48.066;14.124;2024-03-08T07:56:57;96495.19;;;1.75;74.63
49044;BME280;34860;48.066;14.124;2024-03-08T07:59:47;96490.53;;;1.79;74.44
49044;BME280;34860;48.066;14.124;2024-03-08T08:02:35;96485.81;;;1.79;74.55
49044;BME280;34860;48.066;14.124;2024-03-08T08:05:25;96492.88;;;1.80;74.73
49044;BME280;34860;48.066;14.124;2024-03-08T08:08:14;96487.41;;;1.88;74.44
49044;BME280;34860;48.066;14.124;2024-03-08T08:11:03;96483.53;;;1.96;74.61
49044;BME280;34860;48.066;14.124;2024-03-08T08:13:52;96480.84;;;2.07;74.52
49044;BME280;34860;48.066;14.124;2024-03-08T08:16:43;96478.59;;;2.30;74.49
49044;BME280;34860;48.066;14.124;2024-03-08T08:19:32;96480.22;;;2.57;74.22
49044;BME280;34860;48.066;14.124;2024-03-08T08:22:21;96481.03;;;2.61;73.88
49044;BME280;34860;48.066;14.124;2024-03-08T08:25:10;96475.16;;;2.66;73.96
49044;BME280;34860;48.066;14.124;2024-03-08T08:28:00;96478.69;;;2.73;74.06
49044;BME280;34860;48.066;14.124;2024-03-08T08:30:51;96476.34;;;2.76;73.97
49044;BME280;34860;48.066;14.124;2024-03-08T08:33:41;96468.09;;;2.79;73.79
49044;BME280;34860;48.066;14.124;2024-03-08T08:36:31;96468.50;;;2.85;73.76
49044;BME280;34860;48.066;14.124;2024-03-08T08:39:19;96470.44;;;2.81;73.96
49044;BME280;34860;48.066;14.124;2024-03-08T08:42:10;96474.41;;;3.05;73.87
49044;BME280;34860;48.066;14.124;2024-03-08T08:44:58;96467.34;;;3.18;73.53
49044;BME280;34860;48.066;14.124;2024-03-08T08:47:51;96464.97;;;3.45;73.39
49044;BME280;34860;48.066;14.124;2024-03-08T08:50:41;96461.00;;;3.57;73.03
49044;BME280;34860;48.066;14.124;2024-03-08T08:53:31;96453.53;;;3.61;73.20
49044;BME280;34860;48.066;14.124;2024-03-08T08:56:22;96448.06;;;3.58;73.01
49044;BME280;34860;48.066;14.124;2024-03-08T08:59:12;96450.41;;;3.52;73.09
49044;BME280;34860;48.066;14.124;2024-03-08T09:02:01;96449.28;;;3.32;73.35
49044;BME280;34860;48.066;14.124;2024-03-08T09:04:50;96442.97;;;3.49;73.52
49044;BME280;34860;48.066;14.124;2024-03-08T09:07:40;96438.19;;;3.71;72.92
49044;BME280;34860;48.066;14.124;2024-03-08T09:10:29;96438.56;;;3.80;73.12
49044;BME280;34860;48.066;14.124;2024-03-08T09:13:18;96435.38;;;3.96;72.94
49044;BME280;34860;48.066;14.124;2024-03-08T09:16:08;96431.03;;;3.95;72.58
49044;BME280;34860;48.066;14.124;2024-03-08T09:18:57;96429.88;;;3.89;72.89
49044;BME280;34860;48.066;14.124;2024-03-08T09:21:46;96420.72;;;4.17;72.93
49044;BME280;34860;48.066;14.124;2024-03-08T09:24:36;96423.44;;;4.28;72.57
49044;BME280;34860;48.066;14.124;2024-03-08T09:27:25;96418.78;;;4.14;72.84
49044;BME280;34860;48.066;14.124;2024-03-08T09:30:13;96423.13;;;4.08;72.97
49044;BME280;34860;48.066;14.124;2024-03-08T09:33:02;96414.47;;;4.17;72.92
49044;BME280;34860;48.066;14.124;2024-03-08T09:35:50;96413.22;;;4.25;72.86
49044;BME280;34860;48.066;14.124;2024-03-08T09:38:40;96412.34;;;4.43;72.72
49044;BME280;34860;48.066;14.124;2024-03-08T09:41:31;96406.28;;;4.69;72.47
49044;BME280;34860;48.066;14.124;2024-03-08T09:44:22;96409.59;;;4.99;72.29
49044;BME280;34860;48.066;14.124;2024-03-08T09:47:14;96413.34;;;5.19;72.06
49044;BME280;34860;48.066;14.124;2024-03-08T09:50:04;96400.09;;;5.45;71.71
49044;BME280;34860;48.066;14.124;2024-03-08T09:52:56;96390.78;;;5.70;71.32
49044;BME280;34860;48.066;14.124;2024-03-08T09:55:45;96398.97;;;6.11;70.92
49044;BME280;34860;48.066;14.124;2024-03-08T09:58:38;96395.72;;;6.75;69.63
49044;BME280;34860;48.066;14.124;2024-03-08T10:01:41;96390.31;;;7.38;68.38
49044;BME280;34860;48.066;14.124;2024-03-08T10:04:29;96382.91;;;7.95;66.98
49044;BME280;34860;48.066;14.124;2024-03-08T10:07:19;96383.16;;;8.21;66.93
49044;BME280;34860;48.066;14.124;2024-03-08T10:10:08;96383.75;;;8.12;67.39
49044;BME280;34860;48.066;14.124;2024-03-08T10:12:59;96386.19;;;7.90;68.07
49044;BME280;34860;48.066;14.124;2024-03-08T10:15:49;96386.13;;;7.74;68.44
49044;BME280;34860;48.066;14.124;2024-03-08T10:18:38;96385.28;;;7.33;68.92
49044;BME280;34860;48.066;14.124;2024-03-08T10:21:26;96374.06;;;6.97;69.73
49044;BME280;34860;48.066;14.124;2024-03-08T10:24:15;96367.25;;;6.78;70.05
49044;BME280;34860;48.066;14.124;2024-03-08T10:27:04;96355.63;;;6.90;70.13
49044;BME280;34860;48.066;14.124;2024-03-08T10:29:52;96368.81;;;7.26;69.53
49044;BME280;34860;48.066;14.124;2024-03-08T10:32:42;96359.41;;;8.04;67.44
49044;BME280;34860;48.066;14.124;2024-03-08T10:35:31;96364.84;;;8.07;67.15
49044;BME280;34860;48.066;14.124;2024-03-08T10:38:20;96348.22;;;7.91;67.60
49044;BME280;34860;48.066;14.124;2024-03-08T10:41:11;96359.88;;;7.82;68.27
49044;BME280;34860;48.066;14.124;2024-03-08T10:44:10;96355.88;;;7.83;68.67
49044;BME280;34860;48.066;14.124;2024-03-08T10:47:01;96343.31;;;7.98;68.48
49044;BME280;34860;48.066;14.124;2024-03-08T10:50:01;96339.91;;;8.27;68.01
49044;BME280;34860;48.066;14.124;2024-03-08T10:52:57;96348.22;;;8.64;67.43
49044;BME280;34860;48.066;14.124;2024-03-08T10:55:49;96345.53;;;8.60;67.12
49044;BME280;34860;48.066;14.124;2024-03-08T10:58:41;96343.56;;;8.41;67.44
49044;BME280;34860;48.066;14.124;2024-03-08T11:01:31;96334.38;;;8.27;67.72
49044;BME280;34860;48.066;14.124;2024-03-08T11:04:20;96331.47;;;8.34;67.72
49044;BME280;34860;48.066;14.124;2024-03-08T11:07:12;96337.03;;;8.51;67.53
49044;BME280;34860;48.066;14.124;2024-03-08T11:10:06;96322.88;;;8.49;67.49
49044;BME280;34860;48.066;14.124;2024-03-08T11:12:58;96324.06;;;8.64;67.24
49044;BME280;34860;48.066;14.124;2024-03-08T11:15:46;96321.72;;;8.96;66.44
49044;BME280;34860;48.066;14.124;2024-03-08T11:18:35;96324.28;;;9.49;65.35
49044;BME280;34860;48.066;14.124;2024-03-08T11:21:24;96314.22;;;9.55;64.79
49044;BME280;34860;48.066;14.124;2024-03-08T11:24:15;96306.84;;;9.19;65.65
49044;BME280;34860;48.066;14.124;2024-03-08T11:27:04;96313.56;;;9.05;66.05
49044;BME280;34860;48.066;14.124;2024-03-08T11:30:01;96300.16;;;9.03;65.84
49044;BME280;34860;48.066;14.124;2024-03-08T11:33:00;96291.50;;;8.85;66.12
49044;BME280;34860;48.066;14.124;2024-03-08T11:35:50;96297.16;;;8.65;66.69
49044;BME280;34860;48.066;14.124;2024-03-08T11:38:40;96278.69;;;8.42;66.78
49044;BME280;34860;48.066;14.124;2024-03-08T11:41:32;96275.50;;;8.43;66.71
49044;BME280;34860;48.066;14.124;2024-03-08T11:44:21;96284.13;;;8.29;66.95
49044;BME280;34860;48.066;14.124;2024-03-08T11:47:09;96264.75;;;8.29;67.00
49044;BME280;34860;48.066;14.124;2024-03-08T11:49:58;96273.91;;;8.26;67.06
49044;BME280;34860;48.066;14.124;2024-03-08T11:52:47;96267.66;;;8.22;67.00
49044;BME280;34860;48.066;14.124;2024-03-08T11:55:36;96264.78;;;8.09;67.35
49044;BME280;34860;48.066;14.124;2024-03-08T11:58:26;96256.88;;;8.11;67.42
49044;BME280;34860;48.066;14.124;2024-03-08T12:01:15;96259.81;;;8.20;67.31
49044;BME280;34860;48.066;14.124;2024-03-08T12:04:04;96252.91;;;8.28;67.07
49044;BME280;34860;48.066;14.124;2024-03-08T12:06:53;96260.59;;;8.37;66.88
49044;BME280;34860;48.066;14.124;2024-03-08T12:09:41;96258.81;;;8.47;66.84
49044;BME280;34860;48.066;14.124;2024-03-08T12:12:33;96244.69;;;8.58;66.55
49044;BME280;34860;48.066;14.124;2024-03-08T12:15:24;96246.75;;;8.53;66.88
49044;BME280;34860;48.066;14.124;2024-03-08T12:18:12;96247.56;;;8.54;67.03
49044;BME280;34860;48.066;14.124;2024-03-08T12:21:04;96241.22;;;8.53;67.01
49044;BME280;34860;48.066;14.124;2024-03-08T12:24:05;96244.97;;;8.63;66.55
49044;BME280;34860;48.066;14.124;2024-03-08T12:26:55;96241.91;;;8.74;66.61
49044;BME280;34860;48.066;14.124;2024-03-08T12:29:44;96243.41;;;8.91;65.98
49044;BME280;34860;48.066;14.124;2024-03-08T12:32:35;96230.88;;;8.87;66.12
49044;BME280;34860;48.066;14.124;2024-03-08T12:35:26;96233.91;;;8.93;65.94
49044;BME280;34860;48.066;14.124;2024-03-08T12:38:15;96222.28;;;8.98;65.47
49044;BME280;34860;48.066;14.124;2024-03-08T12:41:04;96226.41;;;9.06;65.45
49044;BME280;34860;48.066;14.124;2024-03-08T12:43:53;96219.06;;;9.29;65.29
49044;BME280;34860;48.066;14.124;2024-03-08T12:46:44;96213.94;;;9.82;64.01
49044;BME280;34860;48.066;14.124;2024-03-08T12:49:34;96220.03;;;10.54;62.83
49044;BME280;34860;48.066;14.124;2024-03-08T12:52:22;96220.56;;;12.16;59.15
49044;BME280;34860;48.066;14.124;2024-03-08T12:55:11;96220.13;;;13.33;56.74
49044;BME280;34860;48.066;14.124;2024-03-08T12:57:59;96213.00;;;14.69;53.88
49044;BME280;34860;48.066;14.124;2024-03-08T13:00:48;96204.75;;;15.83;51.57
49044;BME280;34860;48.066;14.124;2024-03-08T13:03:39;96197.38;;;16.15;51.21
49044;BME280;34860;48.066;14.124;2024-03-08T13:06:29;96193.00;;;15.39;52.47
49044;BME280;34860;48.066;14.124;2024-03-08T13:09:18;96207.28;;;15.26;52.06
49044;BME280;34860;48.066;14.124;2024-03-08T13:12:07;96191.50;;;15.53;51.54
49044;BME280;34860;48.066;14.124;2024-03-08T13:14:56;96194.59;;;16.15;49.98
49044;BME280;34860;48.066;14.124;2024-03-08T13:17:45;96194.59;;;15.70;50.58
49044;BME280;34860;48.066;14.124;2024-03-08T13:20:33;96188.97;;;15.25;51.49
49044;BME280;34860;48.066;14.124;2024-03-08T13:23:27;96182.66;;;15.16;51.33
49044;BME280;34860;48.066;14.124;2024-03-08T13:26:16;96166.63;;;15.01;51.33
49044;BME280;34860;48.066;14.124;2024-03-08T13:29:04;96176.97;;;15.25;50.83
49044;BME280;34860;48.066;14.124;2024-03-08T13:31:53;96156.28;;;14.44;51.56
49044;BME280;34860;48.066;14.124;2024-03-08T13:34:44;96162.63;;;14.93;50.92
49044;BME280;34860;48.066;14.124;2024-03-08T13:37:34;96154.50;;;15.34;49.99
49044;BME280;34860;48.066;14.124;2024-03-08T13:40:24;96162.63;;;14.21;51.97
49044;BME280;34860;48.066;14.124;2024-03-08T13:43:12;96160.59;;;13.78;53.18
49044;BME280;34860;48.066;14.124;2024-03-08T13:46:01;96164.06;;;14.40;51.80
49044;BME280;34860;48.066;14.124;2024-03-08T13:48:50;96151.59;;;15.73;48.65
49044;BME280;34860;48.066;14.124;2024-03-08T13:51:48;96149.00;;;15.85;48.20
49044;BME280;34860;48.066;14.124;2024-03-08T13:54:37;96144.81;;;14.66;50.95
49044;BME280;34860;48.066;14.124;2024-03-08T13:57:27;96131.91;;;14.11;52.05
49044;BME280;34860;48.066;14.124;2024-03-08T14:00:16;96128.31;;;14.44;51.18
49044;BME280;34860;48.066;14.124;2024-03-08T14:03:05;96129.56;;;14.67;50.10
49044;BME280;34860;48.066;14.124;2024-03-08T14:05:53;96130.78;;;14.42;50.92
49044;BME280;34860;48.066;14.124;2024-03-08T14:08:44;96128.13;;;15.11;49.20
49044;BME280;34860;48.066;14.124;2024-03-08T14:11:33;96122.13;;;15.03;49.11
49044;BME280;34860;48.066;14.124;2024-03-08T14:14:23;96121.41;;;14.06;50.66
49044;BME280;34860;48.066;14.124;2024-03-08T14:17:11;96120.63;;;12.93;52.73
49044;BME280;34860;48.066;14.124;2024-03-08T14:20:05;96111.75;;;12.20;54.64
49044;BME280;34860;48.066;14.124;2024-03-08T14:22:54;96106.38;;;11.44;56.51
49044;BME280;34860;48.066;14.124;2024-03-08T14:25:43;96103.09;;;10.83;57.49
49044;BME280;34860;48.066;14.124;2024-03-08T14:28:32;96098.28;;;10.40;58.40
49044;BME280;34860;48.066;14.124;2024-03-08T14:31:22;96090.13;;;10.10;58.84
49044;BME280;34860;48.066;14.124;2024-03-08T14:34:12;96098.06;;;9.86;59.33
49044;BME280;34860;48.066;14.124;2024-03-08T14:37:02;96094.75;;;9.66;59.70
49044;BME280;34860;48.066;14.124;2024-03-08T14:39:55;96087.06;;;9.44;59.81
49044;BME280;34860;48.066;14.124;2024-03-08T14:42:44;96090.06;;;9.24;60.10
49044;BME280;34860;48.066;14.124;2024-03-08T14:45:32;96091.72;;;9.08;60.18
49044;BME280;34860;48.066;14.124;2024-03-08T14:48:23;96081.03;;;8.94;60.25
49044;BME280;34860;48.066;14.124;2024-03-08T14:51:11;96079.13;;;8.78;60.25
49044;BME280;34860;48.066;14.124;2024-03-08T14:54:01;96081.75;;;8.69;60.30
49044;BME280;34860;48.066;14.124;2024-03-08T14:56:53;96068.59;;;8.73;60.22